createdAt,value
2017-11-04T00:00:03.564Z,24.60
2017-11-04T00:02:31.062Z,25.03
2017-11-04T00:04:58.544Z,21.90
2017-11-04T00:07:26.011Z,25.17
2017-11-04T00:09:53.482Z,23.27
2017-11-04T00:12:20.952Z,27.77
2017-11-04T00:14:48.424Z,23.27
2017-11-04T00:17:15.924Z,25.27
2017-11-04T00:19:43.392Z,24.67
2017-11-04T00:22:10.873Z,23.03
2017-11-04T00:24:38.402Z,22.90
2017-11-04T00:27:05.932Z,23.57
2017-11-04T00:29:33.408Z,21.83
2017-11-04T00:32:00.918Z,23.97
2017-11-04T00:34:28.402Z,21.97
2017-11-04T00:36:55.912Z,22.03
2017-11-04T00:39:23.571Z,23.73
2017-11-04T00:41:51.029Z,22.07
2017-11-04T00:44:18.504Z,21.87
2017-11-04T00:46:45.999Z,22.27
2017-11-04T00:49:13.456Z,21.77
2017-11-04T00:51:40.963Z,22.03
2017-11-04T00:54:08.426Z,22.97
2017-11-04T00:56:35.951Z,21.57
2017-11-04T00:59:04.271Z,21.97
2017-11-04T01:01:31.745Z,20.63
2017-11-04T01:03:59.196Z,22.07
2017-11-04T01:06:26.707Z,23.63
2017-11-04T01:08:54.203Z,20.57
2017-11-04T01:11:21.713Z,21.97
2017-11-04T01:13:49.179Z,21.43
2017-11-04T01:16:16.649Z,23.13
2017-11-04T01:18:44.117Z,23.50
2017-11-04T01:21:11.597Z,20.43
2017-11-04T01:23:39.059Z,21.13
2017-11-04T01:26:06.681Z,20.87
2017-11-04T01:28:34.185Z,21.77
2017-11-04T01:31:01.674Z,22.87
2017-11-04T01:33:29.947Z,20.40
2017-11-04T01:35:57.432Z,26.17
2017-11-04T01:38:24.924Z,21.07
2017-11-04T01:40:52.447Z,21.60
2017-11-04T01:43:19.904Z,22.40
2017-11-04T01:45:47.469Z,24.00
2017-11-04T01:48:14.371Z,24.13
2017-11-04T01:50:42.805Z,21.30
2017-11-04T01:53:17.293Z,20.87
2017-11-04T01:55:44.762Z,21.23
2017-11-04T01:58:12.275Z,20.60
2017-11-04T02:00:39.738Z,20.77
2017-11-04T02:03:07.220Z,20.53
2017-11-04T02:05:34.675Z,21.83
2017-11-04T02:08:02.201Z,21.23
2017-11-04T02:10:29.673Z,19.60
2017-11-04T02:12:57.168Z,25.70
2017-11-04T02:15:24.631Z,22.37
2017-11-04T02:17:52.155Z,22.63
2017-11-04T02:20:19.650Z,21.53
2017-11-04T02:22:47.159Z,25.33
2017-11-04T02:25:14.657Z,22.90
2017-11-04T02:27:42.203Z,24.53
2017-11-04T02:30:09.681Z,21.40
2017-11-04T02:32:37.190Z,21.67
2017-11-04T02:35:04.645Z,22.90
2017-11-04T02:37:32.107Z,23.70
2017-11-04T02:39:59.555Z,20.87
2017-11-04T02:42:27.390Z,22.40
2017-11-04T02:44:54.838Z,23.23
2017-11-04T02:47:22.299Z,23.33
2017-11-04T02:49:49.802Z,19.33
2017-11-04T02:52:17.314Z,24.63
2017-11-04T02:54:44.809Z,24.83
2017-11-04T02:57:12.327Z,23.97
2017-11-04T02:59:39.788Z,24.10
2017-11-04T03:02:07.284Z,26.83
2017-11-04T03:04:34.756Z,21.97
2017-11-04T03:07:02.536Z,21.00
2017-11-04T03:09:31.301Z,22.57
2017-11-04T03:11:58.755Z,23.93
2017-11-04T03:14:26.251Z,21.73
2017-11-04T03:16:53.775Z,22.40
2017-11-04T03:19:21.700Z,25.00
2017-11-04T03:21:55.655Z,23.93
2017-11-04T03:24:24.630Z,24.97
2017-11-04T03:26:52.363Z,23.67
2017-11-04T03:29:19.878Z,20.53
2017-11-04T03:31:47.412Z,23.27
2017-11-04T03:34:14.878Z,22.90
2017-11-04T03:36:42.597Z,20.13
2017-11-04T03:39:10.088Z,21.27
2017-11-04T03:41:37.572Z,21.23
2017-11-04T03:44:05.071Z,24.13
2017-11-04T03:46:32.577Z,24.70
2017-11-04T03:49:00.056Z,23.13
2017-11-04T03:51:27.672Z,23.43
2017-11-04T03:53:55.134Z,20.87
2017-11-04T03:56:22.620Z,27.63
2017-11-04T03:58:50.964Z,23.07
2017-11-04T04:01:19.248Z,22.13
2017-11-04T04:03:46.707Z,21.53
2017-11-04T04:06:14.608Z,21.27
2017-11-04T04:08:42.225Z,20.73
2017-11-04T04:11:09.894Z,22.33
2017-11-04T04:13:38.064Z,22.57
2017-11-04T04:16:05.515Z,21.77
2017-11-04T04:18:33.058Z,23.43
2017-11-04T04:21:00.511Z,21.80
2017-11-04T04:23:28.473Z,21.60
2017-11-04T04:25:55.979Z,22.83
2017-11-04T04:28:23.503Z,23.30
2017-11-04T04:30:50.975Z,20.83
2017-11-04T04:33:18.457Z,23.53
2017-11-04T04:35:45.936Z,23.67
2017-11-04T04:38:13.407Z,27.37
2017-11-04T04:40:40.929Z,23.20
2017-11-04T04:43:08.432Z,20.80
2017-11-04T04:45:35.908Z,22.93
2017-11-04T04:48:03.385Z,22.27
2017-11-04T04:50:30.861Z,23.33
2017-11-04T04:52:58.399Z,23.13
2017-11-04T04:55:25.872Z,23.30
2017-11-04T04:57:53.337Z,24.27
2017-11-04T05:00:20.855Z,21.80
2017-11-04T05:02:48.355Z,22.70
2017-11-04T05:05:16.240Z,23.20
2017-11-04T05:07:43.714Z,19.17
2017-11-04T05:10:11.175Z,22.57
2017-11-04T05:12:38.724Z,25.70
2017-11-04T05:15:06.198Z,25.17
2017-11-04T05:17:33.674Z,23.13
2017-11-04T05:20:01.154Z,23.83
2017-11-04T05:22:28.923Z,21.30
2017-11-04T05:24:56.389Z,20.93
2017-11-04T05:27:23.865Z,22.03
2017-11-04T05:29:51.331Z,23.60
2017-11-04T05:32:18.783Z,22.30
2017-11-04T05:34:46.301Z,21.63
2017-11-04T05:37:13.772Z,22.13
2017-11-04T05:39:41.300Z,23.37
2017-11-04T05:42:08.779Z,20.73
2017-11-04T05:44:36.240Z,20.20
2017-11-04T05:47:03.713Z,21.90
2017-11-04T05:49:31.193Z,23.27
2017-11-04T05:51:59.596Z,22.17
2017-11-04T05:54:27.064Z,22.37
2017-11-04T05:56:54.569Z,21.77
2017-11-04T05:59:22.079Z,24.20
2017-11-04T06:01:49.531Z,22.23
2017-11-04T06:04:18.309Z,19.63
2017-11-04T06:06:45.777Z,24.87
2017-11-04T06:09:13.249Z,21.37
2017-11-04T06:11:40.706Z,22.50
2017-11-04T06:14:08.774Z,20.30
2017-11-04T06:16:36.238Z,23.17
2017-11-04T06:19:03.702Z,20.93
2017-11-04T06:21:31.171Z,20.47
2017-11-04T06:23:58.651Z,20.73
2017-11-04T06:26:26.137Z,22.47
2017-11-04T06:28:58.644Z,22.20
2017-11-04T06:31:26.238Z,21.67
2017-11-04T06:33:53.736Z,22.33
2017-11-04T06:36:21.298Z,21.47
2017-11-04T06:38:48.796Z,22.30
2017-11-04T06:41:16.321Z,23.03
2017-11-04T06:43:43.909Z,22.83
2017-11-04T06:46:11.435Z,23.87
2017-11-04T06:48:40.731Z,18.93
2017-11-04T06:51:08.347Z,22.13
2017-11-04T06:53:36.746Z,22.33
2017-11-04T06:56:04.269Z,27.90
2017-11-04T06:58:31.795Z,23.77
2017-11-04T07:00:59.329Z,18.43
2017-11-04T07:03:26.871Z,24.50
2017-11-04T07:05:54.407Z,22.37
2017-11-04T07:08:21.884Z,22.17
2017-11-04T07:10:49.428Z,22.50
2017-11-04T07:13:16.985Z,21.60
2017-11-04T07:15:44.444Z,24.60
2017-11-04T07:18:11.902Z,23.93
2017-11-04T07:20:39.472Z,24.87
2017-11-04T07:23:06.963Z,21.67
2017-11-04T07:25:34.452Z,23.43
2017-11-04T07:28:01.936Z,25.07
2017-11-04T07:30:29.412Z,24.70
2017-11-04T07:32:56.934Z,23.43
2017-11-04T07:35:24.808Z,24.87
2017-11-04T07:37:52.294Z,22.50
2017-11-04T07:40:19.762Z,22.30
2017-11-04T07:42:48.221Z,22.93
2017-11-04T07:45:15.724Z,23.23
2017-11-04T07:47:43.244Z,25.40
2017-11-04T07:50:10.739Z,28.10
2017-11-04T07:52:38.235Z,25.10
2017-11-04T07:55:05.713Z,28.43
2017-11-04T07:57:33.190Z,26.93
2017-11-04T08:00:00.706Z,26.63
2017-11-04T08:02:28.211Z,23.70
2017-11-04T08:04:55.711Z,22.43
2017-11-04T08:07:23.206Z,25.60
2017-11-04T08:09:50.714Z,24.13
2017-11-04T08:12:18.188Z,26.17
2017-11-04T08:14:45.674Z,24.87
2017-11-04T08:17:13.147Z,24.10
2017-11-04T08:19:41.368Z,27.23
2017-11-04T08:22:08.848Z,23.33
2017-11-04T08:24:36.314Z,24.00
2017-11-04T08:27:03.798Z,21.90
2017-11-04T08:29:31.290Z,24.63
2017-11-04T08:31:58.768Z,27.00
2017-11-04T08:34:26.267Z,22.80
2017-11-04T08:36:56.258Z,25.40
2017-11-04T08:39:23.793Z,25.03
2017-11-04T08:41:51.249Z,27.77
2017-11-04T08:44:18.725Z,28.33
2017-11-04T08:46:46.215Z,25.73
2017-11-04T08:49:13.793Z,23.37
2017-11-04T08:51:41.289Z,28.10
2017-11-04T08:54:08.778Z,27.30
2017-11-04T08:56:36.253Z,29.23
2017-11-04T08:59:03.762Z,26.10
2017-11-04T09:01:31.292Z,28.77
2017-11-04T09:03:58.777Z,24.40
2017-11-04T09:06:26.256Z,30.27
2017-11-04T09:08:54.353Z,25.77
2017-11-04T09:11:21.875Z,24.87
2017-11-04T09:13:49.346Z,26.63
2017-11-04T09:16:16.878Z,26.43
2017-11-04T09:18:44.403Z,21.73
2017-11-04T09:21:18.341Z,24.20
2017-11-04T09:23:45.796Z,28.00
2017-11-04T09:26:13.293Z,22.50
2017-11-04T09:28:40.755Z,25.50
2017-11-04T09:31:08.231Z,24.83
2017-11-04T09:33:35.710Z,23.87
2017-11-04T09:36:03.192Z,26.17
2017-11-04T09:38:30.668Z,24.37
2017-11-04T09:40:58.223Z,26.23
2017-11-04T09:43:25.772Z,25.23
2017-11-04T09:45:53.236Z,30.13
2017-11-04T09:48:20.729Z,24.87
2017-11-04T09:50:48.215Z,23.70
2017-11-04T09:53:15.724Z,23.53
2017-11-04T09:55:43.195Z,26.70
2017-11-04T09:58:11.530Z,25.63
2017-11-04T10:00:39.056Z,23.43
2017-11-04T10:03:06.624Z,24.50
2017-11-04T10:05:34.109Z,26.53
2017-11-04T10:08:01.600Z,24.07
2017-11-04T10:10:29.067Z,24.43
2017-11-04T10:12:56.564Z,23.83
2017-11-04T10:15:24.439Z,23.73
2017-11-04T10:17:51.992Z,23.17
2017-11-04T10:20:19.468Z,24.37
2017-11-04T10:22:46.966Z,24.17
2017-11-04T10:25:14.504Z,22.33
2017-11-04T10:27:42.009Z,22.17
2017-11-04T10:30:09.562Z,22.57
2017-11-04T10:32:37.276Z,23.30
2017-11-04T10:35:04.788Z,21.07
2017-11-04T10:37:32.416Z,23.80
2017-11-04T10:39:59.960Z,22.03
2017-11-04T10:42:39.105Z,21.23
2017-11-04T10:45:07.316Z,20.50
2017-11-04T10:47:35.754Z,19.33
2017-11-04T10:50:05.046Z,18.92
2017-11-04T10:52:32.551Z,19.73
2017-11-04T10:55:00.130Z,18.77
2017-11-04T10:57:27.673Z,18.95
2017-11-04T10:59:55.180Z,21.37
2017-11-04T11:02:22.720Z,17.70
2017-11-04T11:04:50.208Z,18.77
2017-11-04T11:07:17.716Z,18.37
2017-11-04T11:09:45.238Z,19.63
2017-11-04T11:12:12.782Z,18.67
2017-11-04T11:14:40.262Z,17.80
2017-11-04T11:17:07.818Z,18.45
2017-11-04T11:19:35.385Z,18.33
2017-11-04T11:22:02.958Z,16.40
2017-11-04T11:24:30.515Z,17.17
2017-11-04T11:26:58.058Z,16.37
2017-11-04T11:29:25.591Z,17.80
2017-11-04T11:31:53.153Z,18.67
2017-11-04T11:34:20.716Z,17.83
2017-11-04T11:36:48.215Z,17.30
2017-11-04T11:39:15.727Z,18.97
2017-11-04T11:41:43.219Z,17.23
2017-11-04T11:44:10.782Z,18.97
2017-11-04T11:46:38.305Z,17.93
2017-11-04T11:49:05.842Z,16.17
2017-11-04T11:51:33.352Z,17.73
2017-11-04T11:54:00.921Z,19.70
2017-11-04T11:56:28.443Z,19.37
2017-11-04T11:58:55.981Z,17.97
2017-11-04T12:01:23.557Z,18.03
2017-11-04T12:03:51.060Z,18.73
2017-11-04T12:06:18.586Z,17.50
2017-11-04T12:08:46.077Z,17.80
2017-11-04T12:11:13.606Z,18.93
2017-11-04T12:13:41.084Z,21.37
2017-11-04T12:16:08.573Z,17.57
2017-11-04T12:18:36.143Z,19.17
2017-11-04T12:21:03.661Z,15.80
2017-11-04T12:23:31.147Z,18.23
2017-11-04T12:25:58.659Z,17.90
2017-11-04T12:28:26.186Z,17.97
2017-11-04T12:30:53.747Z,16.83
2017-11-04T12:33:21.234Z,17.23
2017-11-04T12:35:48.756Z,15.07
2017-11-04T12:38:16.254Z,17.53
2017-11-04T12:40:43.759Z,16.40
2017-11-04T12:43:11.227Z,16.13
2017-11-04T12:45:38.732Z,16.23
2017-11-04T12:48:06.213Z,16.67
2017-11-04T12:50:33.732Z,15.53
2017-11-04T12:53:01.277Z,16.40
2017-11-04T12:55:28.777Z,15.07
2017-11-04T12:57:56.350Z,14.90
2017-11-04T13:00:23.882Z,14.83
2017-11-04T13:02:51.352Z,14.87
2017-11-04T13:05:18.890Z,13.63
2017-11-04T13:07:46.407Z,16.73
2017-11-04T13:10:14.004Z,17.23
2017-11-04T13:12:41.471Z,15.10
2017-11-04T13:15:08.982Z,14.50
2017-11-04T13:17:36.459Z,14.77
2017-11-04T13:20:03.978Z,14.13
2017-11-04T13:22:31.549Z,14.63
2017-11-04T13:24:59.055Z,14.47
2017-11-04T13:27:26.605Z,13.80
2017-11-04T13:29:54.185Z,13.10
2017-11-04T13:32:21.706Z,15.77
2017-11-04T13:34:49.195Z,15.37
2017-11-04T13:37:16.750Z,15.20
2017-11-04T13:39:44.297Z,14.80
2017-11-04T13:42:11.820Z,13.30
2017-11-04T13:44:39.343Z,14.97
2017-11-04T13:47:06.969Z,15.97
2017-11-04T13:49:34.655Z,15.53
2017-11-04T13:52:02.226Z,14.47
2017-11-04T13:54:29.779Z,14.80
2017-11-04T13:56:57.303Z,15.03
2017-11-04T13:59:24.791Z,14.23
2017-11-04T14:01:52.266Z,14.83
2017-11-04T14:04:19.849Z,13.87
2017-11-04T14:06:47.365Z,14.67
2017-11-04T14:09:14.990Z,15.87
2017-11-04T14:11:42.567Z,15.67
2017-11-04T14:14:10.129Z,15.30
2017-11-04T14:16:37.723Z,13.57
2017-11-04T14:19:05.226Z,12.23
2017-11-04T14:21:32.783Z,12.27
2017-11-04T14:24:00.250Z,13.20
2017-11-04T14:26:27.794Z,12.87
2017-11-04T14:28:55.301Z,12.63
2017-11-04T14:31:23.160Z,10.67
2017-11-04T14:33:51.189Z,13.60
2017-11-04T14:36:18.727Z,14.40
2017-11-04T14:38:46.271Z,17.80
2017-11-04T14:41:13.804Z,14.00
2017-11-04T14:43:41.329Z,15.90
2017-11-04T14:46:08.841Z,13.23
2017-11-04T14:48:36.563Z,11.70
2017-11-04T14:51:04.138Z,12.83
2017-11-04T14:53:31.667Z,12.80
2017-11-04T14:55:59.170Z,12.43
2017-11-04T14:58:26.683Z,14.83
2017-11-04T15:00:54.207Z,13.80
2017-11-04T15:03:21.780Z,13.67
2017-11-04T15:05:49.325Z,13.70
2017-11-04T15:08:16.839Z,12.00
2017-11-04T15:10:44.395Z,12.67
2017-11-04T15:13:13.459Z,12.77
2017-11-04T15:15:41.021Z,14.00
2017-11-04T15:18:08.538Z,12.80
2017-11-04T15:20:36.026Z,13.93
2017-11-04T15:23:03.532Z,16.13
2017-11-04T15:25:31.162Z,16.77
2017-11-04T15:27:58.674Z,13.23
2017-11-04T15:30:35.810Z,12.47
2017-11-04T15:33:03.436Z,12.87
2017-11-04T15:35:31.306Z,12.50
2017-11-04T15:37:58.926Z,12.40
2017-11-04T15:40:26.900Z,15.70
2017-11-04T15:42:54.471Z,12.97
2017-11-04T15:45:21.954Z,16.73
2017-11-04T15:47:49.517Z,13.80
2017-11-04T15:50:17.110Z,14.13
2017-11-04T15:52:44.971Z,13.90
2017-11-04T15:55:12.470Z,16.50
2017-11-04T15:57:40.008Z,15.60
2017-11-04T16:00:07.598Z,15.60
2017-11-04T16:02:35.096Z,17.13
2017-11-04T17:24:32.271Z,21.67
2017-11-04T17:26:59.898Z,21.47
2017-11-04T17:29:27.761Z,21.27
2017-11-04T17:31:55.481Z,20.57
2017-11-04T17:34:23.056Z,21.37
2017-11-04T17:36:50.528Z,23.37
2017-11-04T17:39:18.271Z,22.43
2017-11-04T17:41:45.830Z,22.87
2017-11-04T17:44:17.000Z,21.80
2017-11-04T17:46:44.715Z,22.00
2017-11-04T17:49:12.298Z,19.87
2017-11-04T17:51:41.081Z,21.13
2017-11-04T17:54:08.676Z,23.53
2017-11-04T17:56:36.425Z,23.87
2017-11-04T17:59:15.558Z,22.30
2017-11-04T18:01:46.130Z,22.40
2017-11-04T18:04:14.317Z,23.30
2017-11-04T18:06:41.988Z,21.23
2017-11-04T18:09:09.663Z,24.23
2017-11-04T18:11:37.143Z,21.20
2017-11-04T18:14:04.622Z,25.90
2017-11-04T18:16:32.097Z,21.57
2017-11-04T18:18:59.690Z,22.73
2017-11-04T18:21:27.186Z,24.63
2017-11-04T18:23:54.672Z,23.53
2017-11-04T18:26:22.182Z,21.77
2017-11-04T18:28:49.763Z,26.60
2017-11-04T18:31:17.246Z,22.93
2017-11-04T18:33:44.755Z,21.50
2017-11-04T18:36:12.226Z,23.67
2017-11-04T18:38:40.713Z,24.10
2017-11-04T18:41:08.252Z,23.27
2017-11-04T18:43:35.737Z,23.43
2017-11-04T18:46:03.219Z,22.37
2017-11-04T18:48:30.682Z,25.60
2017-11-04T18:50:58.298Z,25.53
2017-11-04T18:53:25.783Z,24.90
2017-11-04T18:55:53.388Z,25.83
2017-11-04T18:58:20.916Z,24.43
2017-11-04T19:00:48.427Z,26.93
2017-11-04T19:03:15.976Z,25.90
2017-11-04T19:05:44.379Z,26.27
2017-11-04T19:08:12.246Z,25.07
2017-11-04T19:10:40.639Z,23.53
2017-11-04T19:13:08.169Z,25.87
2017-11-04T19:15:36.739Z,25.50
2017-11-04T19:18:04.336Z,24.83
2017-11-04T19:20:36.846Z,22.80
2017-11-04T19:23:05.218Z,25.63
2017-11-04T19:25:35.526Z,26.17
2017-11-04T19:28:03.124Z,29.33
2017-11-04T19:30:30.976Z,25.87
2017-11-04T19:32:58.510Z,26.73
2017-11-04T19:35:32.645Z,24.03
2017-11-04T19:38:00.240Z,28.43
2017-11-04T19:40:27.699Z,25.30
2017-11-04T19:42:55.267Z,27.70
2017-11-04T19:45:25.940Z,28.17
2017-11-04T19:47:53.613Z,26.07
2017-11-04T19:50:21.235Z,27.37
2017-11-04T19:52:49.312Z,28.30
2017-11-04T19:55:16.870Z,26.23
2017-11-04T19:57:46.063Z,27.77
2017-11-04T20:00:13.689Z,26.00
2017-11-04T20:02:41.187Z,25.80
2017-11-04T20:05:08.743Z,26.70
2017-11-04T20:07:36.276Z,23.10
2017-11-04T20:10:03.782Z,28.00
2017-11-04T20:12:31.332Z,28.90
2017-11-04T20:14:58.872Z,26.50
2017-11-04T20:17:26.384Z,26.77
2017-11-04T20:19:53.933Z,30.33
2017-11-04T20:22:21.433Z,27.27
2017-11-04T20:24:54.590Z,25.80
2017-11-04T20:27:22.185Z,26.80
2017-11-04T20:29:50.040Z,27.50
2017-11-04T20:32:17.510Z,24.10
2017-11-04T20:34:44.992Z,29.17
2017-11-04T20:37:12.611Z,25.47
2017-11-04T20:39:40.110Z,27.50
2017-11-04T20:42:07.836Z,26.13
2017-11-04T20:44:35.383Z,26.77
2017-11-04T20:47:02.891Z,27.60
2017-11-04T20:49:32.411Z,25.63
2017-11-04T20:52:04.592Z,28.73
2017-11-04T20:54:37.976Z,29.20
2017-11-04T20:57:06.593Z,30.07
2017-11-04T20:59:34.448Z,27.03
2017-11-04T21:02:02.154Z,29.33
2017-11-04T21:04:29.798Z,27.90
2017-11-04T21:06:57.386Z,26.00
2017-11-04T21:09:24.977Z,27.03
2017-11-04T21:11:52.698Z,29.03
2017-11-04T21:14:21.380Z,28.90
2017-11-04T21:16:48.919Z,28.30
2017-11-04T21:19:16.468Z,29.43
2017-11-04T21:21:45.766Z,28.90
2017-11-04T21:24:14.013Z,30.10
2017-11-04T21:26:41.525Z,28.37
2017-11-04T21:29:09.920Z,25.63
2017-11-04T21:31:37.483Z,29.53
2017-11-04T21:34:05.159Z,27.93
2017-11-04T21:36:32.818Z,26.47
2017-11-04T21:39:00.397Z,29.13
2017-11-04T21:41:27.980Z,29.77
2017-11-04T21:43:55.536Z,29.90
2017-11-04T21:46:23.788Z,33.47
2017-11-04T21:48:51.489Z,26.47
2017-11-04T21:51:19.039Z,27.20
2017-11-04T21:53:46.883Z,29.80
2017-11-04T21:56:14.512Z,26.57
2017-11-04T21:58:42.570Z,27.80
2017-11-04T22:01:10.143Z,29.77
2017-11-04T22:03:37.670Z,28.67
2017-11-04T22:06:05.214Z,31.10
2017-11-04T22:08:32.769Z,30.93
2017-11-04T22:11:00.484Z,31.47
2017-11-04T22:13:28.025Z,26.97
2017-11-04T22:15:55.646Z,28.33
2017-11-04T22:18:23.220Z,31.00
2017-11-04T22:20:50.731Z,30.60
2017-11-04T22:23:18.224Z,27.57
2017-11-04T22:25:45.739Z,28.10
2017-11-04T22:28:14.830Z,31.60
2017-11-04T22:30:44.249Z,30.20
2017-11-04T22:33:11.972Z,29.57
2017-11-04T22:35:39.705Z,28.63
2017-11-04T22:38:09.514Z,28.97
2017-11-04T22:40:37.039Z,30.33
2017-11-04T22:43:04.757Z,27.23
2017-11-04T22:45:32.515Z,31.23
2017-11-04T22:47:59.999Z,28.60
2017-11-04T22:50:27.568Z,32.93
2017-11-04T22:52:55.111Z,28.90
2017-11-04T22:55:25.851Z,31.80
2017-11-04T22:57:54.299Z,31.87
2017-11-04T23:00:22.480Z,30.73
2017-11-04T23:02:50.553Z,35.03
2017-11-04T23:05:18.082Z,29.47
2017-11-04T23:07:45.647Z,32.93
2017-11-04T23:10:13.222Z,31.87
2017-11-04T23:12:40.773Z,30.47
2017-11-04T23:15:08.616Z,31.13
2017-11-04T23:17:36.202Z,31.30
2017-11-04T23:20:04.819Z,34.73
2017-11-04T23:22:32.365Z,31.13
2017-11-04T23:24:59.892Z,30.97
2017-11-04T23:27:27.474Z,29.07
2017-11-04T23:29:54.980Z,30.87
2017-11-04T23:32:22.520Z,27.03
2017-11-04T23:34:50.366Z,32.17
2017-11-04T23:37:17.913Z,30.97
2017-11-04T23:39:45.468Z,32.90
2017-11-04T23:42:12.942Z,32.23
2017-11-04T23:44:40.471Z,36.93
2017-11-04T23:47:07.948Z,32.07
2017-11-04T23:49:35.450Z,36.00
2017-11-04T23:52:02.985Z,36.33
2017-11-04T23:54:30.474Z,30.70
2017-11-04T23:56:57.978Z,32.97
2017-11-04T23:59:25.686Z,32.17
